sensor_id;sensor_type;location;lat;lon;timestamp;pressure;altitude;pressure_sealevel;temperature;humidity
13934;BME280;7039;52.168;9.866;2022-08-01T00:00:08;100398.38;;;19.31;100.00
13934;BME280;7039;52.168;9.866;2022-08-01T00:02:35;100395.03;;;19.29;100.00
13934;BME280;7039;52.168;9.866;2022-08-01T00:05:03;100391.28;;;19.32;100.00
13934;BME280;7039;52.168;9.866;2022-08-01T00:07:31;100392.97;;;19.33;100.00
13934;BME280;7039;52.168;9.866;2022-08-01T00:09:57;100390.03;;;19.26;100.00
13934;BME280;7039;52.168;9.866;2022-08-01T00:12:25;100395.88;;;19.30;100.00
13934;BME280;7039;52.168;9.866;2022-08-01T00:14:52;100402.16;;;19.29;100.00
13934;BME280;7039;52.168;9.866;2022-08-01T00:17:18;100395.47;;;19.34;100.00
13934;BME280;7039;52.168;9.866;2022-08-01T00:19:45;100395.34;;;19.36;100.00
13934;BME280;7039;52.168;9.866;2022-08-01T00:22:11;100394.09;;;19.40;100.00
13934;BME280;7039;52.168;9.866;2022-08-01T00:24:38;100391.03;;;19.45;100.00
13934;BME280;7039;52.168;9.866;2022-08-01T00:27:04;100395.50;;;19.44;100.00
13934;BME280;7039;52.168;9.866;2022-08-01T00:29:32;100394.41;;;19.47;100.00
13934;BME280;7039;52.168;9.866;2022-08-01T00:31:59;100388.66;;;19.41;100.00
13934;BME280;7039;52.168;9.866;2022-08-01T00:34:25;100393.69;;;19.45;100.00
13934;BME280;7039;52.168;9.866;2022-08-01T00:36:52;100388.81;;;19.40;100.00
13934;BME280;7039;52.168;9.866;2022-08-01T00:39:18;100389.63;;;19.40;100.00
13934;BME280;7039;52.168;9.866;2022-08-01T00:41:45;100385.88;;;19.43;100.00
13934;BME280;7039;52.168;9.866;2022-08-01T00:44:11;100389.22;;;19.45;100.00
13934;BME280;7039;52.168;9.866;2022-08-01T00:46:39;100390.50;;;19.51;100.00
13934;BME280;7039;52.168;9.866;2022-08-01T00:49:06;100382.00;;;19.47;100.00
13934;BME280;7039;52.168;9.866;2022-08-01T00:51:32;100388.00;;;19.49;100.00
13934;BME280;7039;52.168;9.866;2022-08-01T00:54:00;100383.66;;;19.48;100.00
13934;BME280;7039;52.168;9.866;2022-08-01T00:56:27;100380.47;;;19.45;100.00
13934;BME280;7039;52.168;9.866;2022-08-01T00:58:55;100379.06;;;19.40;100.00
13934;BME280;7039;52.168;9.866;2022-08-01T01:01:21;100384.47;;;19.39;100.00
13934;BME280;7039;52.168;9.866;2022-08-01T01:03:50;100381.72;;;19.40;100.00
13934;BME280;7039;52.168;9.866;2022-08-01T01:06:25;100386.28;;;19.38;100.00
13934;BME280;7039;52.168;9.866;2022-08-01T01:08:59;100388.50;;;19.33;100.00
13934;BME280;7039;52.168;9.866;2022-08-01T01:11:32;100383.47;;;19.20;100.00
13934;BME280;7039;52.168;9.866;2022-08-01T01:14:04;100395.53;;;19.04;100.00
13934;BME280;7039;52.168;9.866;2022-08-01T01:16:36;100397.44;;;18.92;100.00
13934;BME280;7039;52.168;9.866;2022-08-01T01:19:13;100401.13;;;18.89;100.00
13934;BME280;7039;52.168;9.866;2022-08-01T01:22:06;100397.56;;;18.90;100.00
13934;BME280;7039;52.168;9.866;2022-08-01T01:24:40;100403.34;;;18.84;100.00
13934;BME280;7039;52.168;9.866;2022-08-01T01:27:19;100402.09;;;18.78;100.00
13934;BME280;7039;52.168;9.866;2022-08-01T01:29:50;100399.44;;;18.78;100.00
13934;BME280;7039;52.168;9.866;2022-08-01T01:32:23;100399.19;;;18.82;100.00
13934;BME280;7039;52.168;9.866;2022-08-01T01:34:54;100400.97;;;18.81;100.00
13934;BME280;7039;52.168;9.866;2022-08-01T01:37:25;100400.97;;;18.81;100.00
13934;BME280;7039;52.168;9.866;2022-08-01T01:39:54;100410.97;;;18.77;100.00
13934;BME280;7039;52.168;9.866;2022-08-01T01:42:24;100411.44;;;18.83;100.00
13934;BME280;7039;52.168;9.866;2022-08-01T01:44:54;100414.19;;;18.81;100.00
13934;BME280;7039;52.168;9.866;2022-08-01T01:47:21;100412.50;;;18.80;100.00
13934;BME280;7039;52.168;9.866;2022-08-01T01:49:49;100410.72;;;18.81;100.00
13934;BME280;7039;52.168;9.866;2022-08-01T01:52:18;100406.75;;;18.75;100.00
13934;BME280;7039;52.168;9.866;2022-08-01T01:54:47;100406.63;;;18.76;100.00
13934;BME280;7039;52.168;9.866;2022-08-01T01:57:15;100405.50;;;18.69;100.00
13934;BME280;7039;52.168;9.866;2022-08-01T01:59:44;100401.59;;;18.73;100.00
13934;BME280;7039;52.168;9.866;2022-08-01T02:02:13;100397.75;;;18.77;100.00
13934;BME280;7039;52.168;9.866;2022-08-01T02:04:43;100401.09;;;18.80;100.00
13934;BME280;7039;52.168;9.866;2022-08-01T02:07:12;100395.13;;;18.77;100.00
13934;BME280;7039;52.168;9.866;2022-08-01T02:09:42;100390.06;;;18.74;100.00
13934;BME280;7039;52.168;9.866;2022-08-01T02:12:10;100398.13;;;18.73;100.00
13934;BME280;7039;52.168;9.866;2022-08-01T02:14:38;100400.91;;;18.71;100.00
13934;BME280;7039;52.168;9.866;2022-08-01T02:17:06;100394.78;;;18.71;100.00
13934;BME280;7039;52.168;9.866;2022-08-01T02:19:35;100405.50;;;18.69;100.00
13934;BME280;7039;52.168;9.866;2022-08-01T02:22:07;100396.59;;;18.70;100.00
13934;BME280;7039;52.168;9.866;2022-08-01T02:24:38;100399.81;;;18.74;100.00
13934;BME280;7039;52.168;9.866;2022-08-01T02:27:10;100398.00;;;18.74;100.00
13934;BME280;7039;52.168;9.866;2022-08-01T02:29:40;100406.03;;;18.73;100.00
13934;BME280;7039;52.168;9.866;2022-08-01T02:32:11;100402.91;;;18.79;100.00
13934;BME280;7039;52.168;9.866;2022-08-01T02:34:41;100399.28;;;18.80;100.00
13934;BME280;7039;52.168;9.866;2022-08-01T02:37:09;100399.44;;;18.78;100.00
13934;BME280;7039;52.168;9.866;2022-08-01T02:39:38;100398.34;;;18.81;100.00
13934;BME280;7039;52.168;9.866;2022-08-01T02:42:06;100403.63;;;18.81;100.00
13934;BME280;7039;52.168;9.866;2022-08-01T02:44:37;100406.88;;;18.73;100.00
13934;BME280;7039;52.168;9.866;2022-08-01T02:47:04;100407.66;;;18.64;100.00
13934;BME280;7039;52.168;9.866;2022-08-01T02:49:32;100412.81;;;18.66;100.00
13934;BME280;7039;52.168;9.866;2022-08-01T02:52:04;100406.84;;;18.64;100.00
13934;BME280;7039;52.168;9.866;2022-08-01T02:54:32;100402.78;;;18.60;100.00
13934;BME280;7039;52.168;9.866;2022-08-01T02:57:00;100409.31;;;18.55;100.00
13934;BME280;7039;52.168;9.866;2022-08-01T02:59:29;100412.06;;;18.54;100.00
13934;BME280;7039;52.168;9.866;2022-08-01T03:01:58;100420.69;;;18.56;100.00
13934;BME280;7039;52.168;9.866;2022-08-01T03:04:26;100419.88;;;18.55;100.00
13934;BME280;7039;52.168;9.866;2022-08-01T03:06:55;100417.78;;;18.59;100.00
13934;BME280;7039;52.168;9.866;2022-08-01T03:09:25;100413.94;;;18.63;100.00
13934;BME280;7039;52.168;9.866;2022-08-01T03:11:55;100419.53;;;18.70;100.00
13934;BME280;7039;52.168;9.866;2022-08-01T03:14:23;100420.88;;;18.64;100.00
13934;BME280;7039;52.168;9.866;2022-08-01T03:16:53;100424.38;;;18.65;100.00
13934;BME280;7039;52.168;9.866;2022-08-01T03:19:22;100418.00;;;18.67;100.00
13934;BME280;7039;52.168;9.866;2022-08-01T03:21:51;100426.03;;;18.66;100.00
13934;BME280;7039;52.168;9.866;2022-08-01T03:24:18;100427.25;;;18.62;100.00
13934;BME280;7039;52.168;9.866;2022-08-01T03:26:48;100429.38;;;18.68;100.00
13934;BME280;7039;52.168;9.866;2022-08-01T03:29:18;100430.50;;;18.65;100.00
13934;BME280;7039;52.168;9.866;2022-08-01T03:31:46;100435.06;;;18.63;100.00
13934;BME280;7039;52.168;9.866;2022-08-01T03:34:14;100431.44;;;18.64;100.00
13934;BME280;7039;52.168;9.866;2022-08-01T03:36:46;100438.59;;;18.73;100.00
13934;BME280;7039;52.168;9.866;2022-08-01T03:39:14;100435.50;;;18.68;100.00
13934;BME280;7039;52.168;9.866;2022-08-01T03:41:49;100443.75;;;18.75;100.00
13934;BME280;7039;52.168;9.866;2022-08-01T03:44:20;100444.84;;;18.72;100.00
13934;BME280;7039;52.168;9.866;2022-08-01T03:46:52;100439.25;;;18.66;100.00
13934;BME280;7039;52.168;9.866;2022-08-01T03:49:22;100441.44;;;18.61;100.00
13934;BME280;7039;52.168;9.866;2022-08-01T03:51:50;100440.16;;;18.55;100.00
13934;BME280;7039;52.168;9.866;2022-08-01T03:54:21;100438.91;;;18.59;100.00
13934;BME280;7039;52.168;9.866;2022-08-01T03:56:51;100435.84;;;18.54;100.00
13934;BME280;7039;52.168;9.866;2022-08-01T03:59:19;100443.44;;;18.47;100.00
13934;BME280;7039;52.168;9.866;2022-08-01T04:01:47;100454.28;;;18.44;100.00
13934;BME280;7039;52.168;9.866;2022-08-01T04:04:14;100456.31;;;18.41;100.00
13934;BME280;7039;52.168;9.866;2022-08-01T04:06:41;100463.97;;;18.44;100.00
13934;BME280;7039;52.168;9.866;2022-08-01T04:09:10;100460.25;;;18.46;100.00
13934;BME280;7039;52.168;9.866;2022-08-01T04:11:37;100465.41;;;18.48;100.00
13934;BME280;7039;52.168;9.866;2022-08-01T04:14:05;100465.91;;;18.42;100.00
13934;BME280;7039;52.168;9.866;2022-08-01T04:16:31;100467.31;;;18.46;100.00
13934;BME280;7039;52.168;9.866;2022-08-01T04:18:58;100461.22;;;18.45;100.00
13934;BME280;7039;52.168;9.866;2022-08-01T04:21:26;100469.72;;;18.49;100.00
13934;BME280;7039;52.168;9.866;2022-08-01T04:23:56;100468.25;;;18.56;100.00
13934;BME280;7039;52.168;9.866;2022-08-01T04:26:24;100465.16;;;18.51;100.00
13934;BME280;7039;52.168;9.866;2022-08-01T04:28:52;100474.38;;;18.56;100.00
13934;BME280;7039;52.168;9.866;2022-08-01T04:31:22;100484.53;;;18.61;100.00
13934;BME280;7039;52.168;9.866;2022-08-01T04:33:53;100483.00;;;18.58;100.00
13934;BME280;7039;52.168;9.866;2022-08-01T04:36:23;100480.25;;;18.60;100.00
13934;BME280;7039;52.168;9.866;2022-08-01T04:38:54;100486.59;;;18.57;100.00
13934;BME280;7039;52.168;9.866;2022-08-01T04:41:22;100494.28;;;18.61;100.00
13934;BME280;7039;52.168;9.866;2022-08-01T04:43:50;100495.38;;;18.58;100.00
13934;BME280;7039;52.168;9.866;2022-08-01T04:46:17;100502.09;;;18.62;100.00
13934;BME280;7039;52.168;9.866;2022-08-01T04:48:47;100501.56;;;18.68;100.00
13934;BME280;7039;52.168;9.866;2022-08-01T04:51:15;100501.44;;;18.70;100.00
13934;BME280;7039;52.168;9.866;2022-08-01T04:53:43;100505.88;;;18.69;100.00
13934;BME280;7039;52.168;9.866;2022-08-01T04:56:11;100502.97;;;18.72;100.00
13934;BME280;7039;52.168;9.866;2022-08-01T04:58:38;100502.22;;;18.82;100.00
13934;BME280;7039;52.168;9.866;2022-08-01T05:01:05;100497.88;;;18.92;100.00
13934;BME280;7039;52.168;9.866;2022-08-01T05:03:31;100503.97;;;18.92;100.00
13934;BME280;7039;52.168;9.866;2022-08-01T05:06:00;100503.31;;;19.00;100.00
13934;BME280;7039;52.168;9.866;2022-08-01T05:08:26;100511.41;;;18.98;100.00
13934;BME280;7039;52.168;9.866;2022-08-01T05:10:53;100502.88;;;18.95;100.00
13934;BME280;7039;52.168;9.866;2022-08-01T05:13:20;100506.63;;;18.92;100.00
13934;BME280;7039;52.168;9.866;2022-08-01T05:15:47;100499.63;;;18.91;100.00
13934;BME280;7039;52.168;9.866;2022-08-01T05:18:13;100509.44;;;18.80;100.00
13934;BME280;7039;52.168;9.866;2022-08-01T05:20:40;100508.84;;;18.76;100.00
13934;BME280;7039;52.168;9.866;2022-08-01T05:23:08;100516.91;;;18.74;100.00
13934;BME280;7039;52.168;9.866;2022-08-01T05:25:35;100513.22;;;18.66;100.00
13934;BME280;7039;52.168;9.866;2022-08-01T05:28:02;100531.31;;;18.70;100.00
13934;BME280;7039;52.168;9.866;2022-08-01T05:30:28;100524.22;;;18.71;100.00
13934;BME280;7039;52.168;9.866;2022-08-01T05:32:55;100522.66;;;18.80;100.00
13934;BME280;7039;52.168;9.866;2022-08-01T05:35:21;100526.13;;;18.80;100.00
13934;BME280;7039;52.168;9.866;2022-08-01T05:37:48;100527.94;;;18.80;100.00
13934;BME280;7039;52.168;9.866;2022-08-01T05:40:16;100520.22;;;18.88;100.00
13934;BME280;7039;52.168;9.866;2022-08-01T05:42:42;100520.88;;;19.01;100.00
13934;BME280;7039;52.168;9.866;2022-08-01T05:45:09;100531.09;;;19.15;100.00
13934;BME280;7039;52.168;9.866;2022-08-01T05:47:36;100519.41;;;19.18;100.00
13934;BME280;7039;52.168;9.866;2022-08-01T05:50:04;100523.22;;;19.25;100.00
13934;BME280;7039;52.168;9.866;2022-08-01T05:52:30;100523.13;;;19.36;100.00
13934;BME280;7039;52.168;9.866;2022-08-01T05:54:57;100526.59;;;19.37;100.00
13934;BME280;7039;52.168;9.866;2022-08-01T05:57:25;100522.19;;;19.16;100.00
13934;BME280;7039;52.168;9.866;2022-08-01T05:59:51;100518.72;;;18.95;100.00
13934;BME280;7039;52.168;9.866;2022-08-01T06:02:18;100535.66;;;18.71;100.00
13934;BME280;7039;52.168;9.866;2022-08-01T06:04:44;100536.22;;;18.54;100.00
13934;BME280;7039;52.168;9.866;2022-08-01T06:07:11;100536.38;;;18.41;100.00
13934;BME280;7039;52.168;9.866;2022-08-01T06:09:37;100536.94;;;18.24;100.00
13934;BME280;7039;52.168;9.866;2022-08-01T06:12:04;100541.00;;;18.16;100.00
13934;BME280;7039;52.168;9.866;2022-08-01T06:14:33;100552.28;;;18.19;100.00
13934;BME280;7039;52.168;9.866;2022-08-01T06:16:59;100555.78;;;18.19;100.00
13934;BME280;7039;52.168;9.866;2022-08-01T06:19:26;100552.53;;;18.15;100.00
13934;BME280;7039;52.168;9.866;2022-08-01T06:21:52;100555.53;;;18.22;100.00
13934;BME280;7039;52.168;9.866;2022-08-01T06:24:19;100554.06;;;18.29;100.00
13934;BME280;7039;52.168;9.866;2022-08-01T06:26:47;100564.75;;;18.28;100.00
13934;BME280;7039;52.168;9.866;2022-08-01T06:29:14;100567.97;;;18.31;100.00
13934;BME280;7039;52.168;9.866;2022-08-01T06:31:42;100568.03;;;18.52;100.00
13934;BME280;7039;52.168;9.866;2022-08-01T06:34:08;100567.59;;;18.68;100.00
13934;BME280;7039;52.168;9.866;2022-08-01T06:36:35;100570.13;;;18.70;100.00
13934;BME280;7039;52.168;9.866;2022-08-01T06:39:01;100573.19;;;18.86;100.00
13934;BME280;7039;52.168;9.866;2022-08-01T06:41:28;100567.75;;;18.99;100.00
13934;BME280;7039;52.168;9.866;2022-08-01T06:43:54;100562.63;;;19.07;100.00
13934;BME280;7039;52.168;9.866;2022-08-01T06:46:21;100565.53;;;19.25;100.00
13934;BME280;7039;52.168;9.866;2022-08-01T06:48:48;100564.28;;;19.29;100.00
13934;BME280;7039;52.168;9.866;2022-08-01T06:51:15;100566.84;;;19.40;100.00
13934;BME280;7039;52.168;9.866;2022-08-01T06:53:44;100561.44;;;19.42;100.00
13934;BME280;7039;52.168;9.866;2022-08-01T06:56:11;100554.03;;;19.36;100.00
13934;BME280;7039;52.168;9.866;2022-08-01T06:58:38;100558.41;;;19.47;100.00
13934;BME280;7039;52.168;9.866;2022-08-01T07:01:05;100558.41;;;19.47;100.00
13934;BME280;7039;52.168;9.866;2022-08-01T07:03:32;100559.84;;;19.60;100.00
13934;BME280;7039;52.168;9.866;2022-08-01T07:06:00;100565.09;;;19.72;100.00
13934;BME280;7039;52.168;9.866;2022-08-01T07:08:27;100564.53;;;19.78;100.00
13934;BME280;7039;52.168;9.866;2022-08-01T07:10:53;100561.22;;;19.76;100.00
13934;BME280;7039;52.168;9.866;2022-08-01T07:13:21;100563.63;;;19.68;100.00
13934;BME280;7039;52.168;9.866;2022-08-01T07:15:50;100570.41;;;19.51;100.00
13934;BME280;7039;52.168;9.866;2022-08-01T07:18:16;100570.34;;;19.41;100.00
13934;BME280;7039;52.168;9.866;2022-08-01T07:20:43;100563.16;;;19.22;100.00
13934;BME280;7039;52.168;9.866;2022-08-01T07:23:12;100580.50;;;19.15;100.00
13934;BME280;7039;52.168;9.866;2022-08-01T07:25:39;100581.41;;;19.04;100.00
13934;BME280;7039;52.168;9.866;2022-08-01T07:28:05;100587.84;;;18.90;100.00
13934;BME280;7039;52.168;9.866;2022-08-01T07:30:32;100587.31;;;18.64;100.00
13934;BME280;7039;52.168;9.866;2022-08-01T07:32:59;100596.19;;;18.31;100.00
13934;BME280;7039;52.168;9.866;2022-08-01T07:35:25;100593.06;;;18.26;100.00
13934;BME280;7039;52.168;9.866;2022-08-01T07:37:52;100598.72;;;18.21;100.00
13934;BME280;7039;52.168;9.866;2022-08-01T07:40:20;100600.75;;;18.29;100.00
13934;BME280;7039;52.168;9.866;2022-08-01T07:42:47;100602.06;;;18.23;100.00
13934;BME280;7039;52.168;9.866;2022-08-01T07:45:13;100602.88;;;18.46;100.00
13934;BME280;7039;52.168;9.866;2022-08-01T07:47:40;100606.84;;;18.41;100.00
13934;BME280;7039;52.168;9.866;2022-08-01T07:50:07;100606.00;;;18.40;100.00
13934;BME280;7039;52.168;9.866;2022-08-01T07:52:34;100603.84;;;18.34;100.00
13934;BME280;7039;52.168;9.866;2022-08-01T07:55:00;100605.16;;;18.51;100.00
13934;BME280;7039;52.168;9.866;2022-08-01T07:57:28;100610.25;;;18.64;100.00
13934;BME280;7039;52.168;9.866;2022-08-01T07:59:55;100620.66;;;18.88;100.00
13934;BME280;7039;52.168;9.866;2022-08-01T08:02:22;100615.00;;;18.92;100.00
13934;BME280;7039;52.168;9.866;2022-08-01T08:04:48;100619.50;;;19.02;100.00
13934;BME280;7039;52.168;9.866;2022-08-01T08:07:15;100619.63;;;19.00;100.00
13934;BME280;7039;52.168;9.866;2022-08-01T08:09:42;100625.75;;;19.01;100.00
13934;BME280;7039;52.168;9.866;2022-08-01T08:12:08;100625.63;;;19.23;100.00
13934;BME280;7039;52.168;9.866;2022-08-01T08:14:36;100617.88;;;19.52;100.00
13934;BME280;7039;52.168;9.866;2022-08-01T08:17:03;100621.44;;;19.63;100.00
13934;BME280;7039;52.168;9.866;2022-08-01T08:19:30;100620.72;;;19.60;100.00
13934;BME280;7039;52.168;9.866;2022-08-01T08:21:58;100619.94;;;19.70;100.00
13934;BME280;7039;52.168;9.866;2022-08-01T08:24:24;100618.78;;;19.93;100.00
13934;BME280;7039;52.168;9.866;2022-08-01T08:26:53;100624.72;;;20.16;100.00
13934;BME280;7039;52.168;9.866;2022-08-01T08:29:20;100624.16;;;20.13;98.75
13934;BME280;7039;52.168;9.866;2022-08-01T08:31:48;100623.44;;;20.01;98.89
13934;BME280;7039;52.168;9.866;2022-08-01T08:34:16;100622.50;;;19.81;99.64
13934;BME280;7039;52.168;9.866;2022-08-01T08:36:42;100621.72;;;19.90;98.75
13934;BME280;7039;52.168;9.866;2022-08-01T08:39:09;100632.19;;;19.92;97.92
13934;BME280;7039;52.168;9.866;2022-08-01T08:41:35;100625.97;;;19.72;97.72
13934;BME280;7039;52.168;9.866;2022-08-01T08:44:02;100624.63;;;19.66;98.63
13934;BME280;7039;52.168;9.866;2022-08-01T08:46:30;100635.63;;;19.83;99.18
13934;BME280;7039;52.168;9.866;2022-08-01T08:49:00;100634.59;;;19.74;97.95
13934;BME280;7039;52.168;9.866;2022-08-01T08:51:30;100629.91;;;19.66;97.52
13934;BME280;7039;52.168;9.866;2022-08-01T08:53:57;100636.53;;;19.72;97.97
13934;BME280;7039;52.168;9.866;2022-08-01T08:56:24;100639.53;;;19.88;97.23
13934;BME280;7039;52.168;9.866;2022-08-01T08:58:51;100646.50;;;19.89;96.64
13934;BME280;7039;52.168;9.866;2022-08-01T09:01:18;100639.75;;;20.06;96.71
13934;BME280;7039;52.168;9.866;2022-08-01T09:03:44;100647.72;;;20.26;95.87
13934;BME280;7039;52.168;9.866;2022-08-01T09:06:12;100652.81;;;20.48;96.10
13934;BME280;7039;52.168;9.866;2022-08-01T09:08:39;100663.91;;;20.63;94.92
13934;BME280;7039;52.168;9.866;2022-08-01T09:11:06;100656.44;;;20.37;91.43
13934;BME280;7039;52.168;9.866;2022-08-01T09:13:32;100654.09;;;20.44;91.82
13934;BME280;7039;52.168;9.866;2022-08-01T09:15:58;100662.13;;;20.33;93.58
13934;BME280;7039;52.168;9.866;2022-08-01T09:18:30;100660.00;;;20.77;92.32
13934;BME280;7039;52.168;9.866;2022-08-01T09:21:12;100660.72;;;20.79;90.95
13934;BME280;7039;52.168;9.866;2022-08-01T09:23:42;100668.94;;;21.05;89.73
13934;BME280;7039;52.168;9.866;2022-08-01T09:26:10;100670.22;;;21.01;89.77
13934;BME280;7039;52.168;9.866;2022-08-01T09:28:37;100677.19;;;20.92;89.58
13934;BME280;7039;52.168;9.866;2022-08-01T09:31:09;100681.50;;;20.93;88.31
13934;BME280;7039;52.168;9.866;2022-08-01T09:33:53;100667.97;;;20.77;88.46
13934;BME280;7039;52.168;9.866;2022-08-01T09:36:23;100679.69;;;20.64;87.70
13934;BME280;7039;52.168;9.866;2022-08-01T09:38:50;100687.03;;;20.61;88.51
13934;BME280;7039;52.168;9.866;2022-08-01T09:41:17;100682.66;;;20.50;89.64
13934;BME280;7039;52.168;9.866;2022-08-01T09:43:53;100689.63;;;20.92;88.50
13934;BME280;7039;52.168;9.866;2022-08-01T09:46:19;100692.38;;;21.10;89.26
13934;BME280;7039;52.168;9.866;2022-08-01T09:48:57;100695.19;;;21.18;87.86
13934;BME280;7039;52.168;9.866;2022-08-01T09:51:29;100699.94;;;21.43;85.93
13934;BME280;7039;52.168;9.866;2022-08-01T09:53:56;100699.38;;;21.50;85.73
13934;BME280;7039;52.168;9.866;2022-08-01T09:56:24;100693.25;;;21.10;84.37
13934;BME280;7039;52.168;9.866;2022-08-01T09:58:53;100696.47;;;21.23;85.26
13934;BME280;7039;52.168;9.866;2022-08-01T10:01:21;100702.16;;;21.28;84.81
13934;BME280;7039;52.168;9.866;2022-08-01T10:04:04;100705.94;;;21.26;84.72
13934;BME280;7039;52.168;9.866;2022-08-01T10:06:32;100704.00;;;21.28;84.87
13934;BME280;7039;52.168;9.866;2022-08-01T10:08:58;100704.94;;;20.98;84.50
13934;BME280;7039;52.168;9.866;2022-08-01T10:11:26;100702.59;;;21.04;85.17
13934;BME280;7039;52.168;9.866;2022-08-01T10:13:53;100707.72;;;20.86;86.35
13934;BME280;7039;52.168;9.866;2022-08-01T10:16:20;100705.25;;;20.95;85.99
13934;BME280;7039;52.168;9.866;2022-08-01T10:18:47;100705.47;;;20.72;85.14
13934;BME280;7039;52.168;9.866;2022-08-01T10:21:14;100699.47;;;20.80;85.92
13934;BME280;7039;52.168;9.866;2022-08-01T10:23:43;100698.28;;;21.03;85.01
13934;BME280;7039;52.168;9.866;2022-08-01T10:26:11;100700.22;;;21.01;84.94
13934;BME280;7039;52.168;9.866;2022-08-01T10:28:39;100702.47;;;21.06;85.91
13934;BME280;7039;52.168;9.866;2022-08-01T10:31:07;100708.47;;;21.37;85.98
13934;BME280;7039;52.168;9.866;2022-08-01T10:33:34;100710.41;;;21.25;84.83
13934;BME280;7039;52.168;9.866;2022-08-01T10:36:05;100698.66;;;21.18;84.55
13934;BME280;7039;52.168;9.866;2022-08-01T10:38:32;100693.91;;;21.32;84.84
13934;BME280;7039;52.168;9.866;2022-08-01T10:41:02;100704.97;;;21.56;83.55
13934;BME280;7039;52.168;9.866;2022-08-01T10:43:29;100695.75;;;21.60;84.10
13934;BME280;7039;52.168;9.866;2022-08-01T10:45:55;100709.13;;;22.16;80.58
13934;BME280;7039;52.168;9.866;2022-08-01T10:48:27;100708.38;;;22.33;80.14
13934;BME280;7039;52.168;9.866;2022-08-01T10:50:58;100707.44;;;22.24;79.80
13934;BME280;7039;52.168;9.866;2022-08-01T10:53:26;100709.25;;;21.77;78.63
13934;BME280;7039;52.168;9.866;2022-08-01T10:55:58;100699.94;;;21.53;80.01
13934;BME280;7039;52.168;9.866;2022-08-01T10:58:28;100699.34;;;21.30;82.13
13934;BME280;7039;52.168;9.866;2022-08-01T11:01:16;100699.78;;;21.25;81.24
13934;BME280;7039;52.168;9.866;2022-08-01T11:03:45;100702.00;;;21.30;82.63
13934;BME280;7039;52.168;9.866;2022-08-01T11:06:24;100700.38;;;21.48;82.87
13934;BME280;7039;52.168;9.866;2022-08-01T11:08:53;100708.41;;;21.76;78.94
13934;BME280;7039;52.168;9.866;2022-08-01T11:11:20;100696.38;;;21.82;77.82
13934;BME280;7039;52.168;9.866;2022-08-01T11:14:02;100705.69;;;21.96;77.70
13934;BME280;7039;52.168;9.866;2022-08-01T11:16:34;100717.31;;;21.95;78.41
13934;BME280;7039;52.168;9.866;2022-08-01T11:19:02;100711.13;;;22.04;76.56
13934;BME280;7039;52.168;9.866;2022-08-01T11:21:58;100706.50;;;22.71;74.87
13934;BME280;7039;52.168;9.866;2022-08-01T11:24:56;100710.19;;;23.06;74.40
13934;BME280;7039;52.168;9.866;2022-08-01T11:27:25;100706.88;;;22.94;75.93
13934;BME280;7039;52.168;9.866;2022-08-01T11:30:25;100713.59;;;23.16;74.88
13934;BME280;7039;52.168;9.866;2022-08-01T11:32:53;100718.16;;;23.42;73.73
13934;BME280;7039;52.168;9.866;2022-08-01T11:35:21;100711.13;;;23.41;72.64
13934;BME280;7039;52.168;9.866;2022-08-01T11:37:49;100706.13;;;23.64;71.85
13934;BME280;7039;52.168;9.866;2022-08-01T11:40:21;100713.31;;;23.01;73.86
13934;BME280;7039;52.168;9.866;2022-08-01T11:42:48;100709.84;;;22.91;73.32
13934;BME280;7039;52.168;9.866;2022-08-01T11:45:15;100714.22;;;22.82;72.24
13934;BME280;7039;52.168;9.866;2022-08-01T11:47:45;100711.66;;;22.90;73.38
13934;BME280;7039;52.168;9.866;2022-08-01T11:50:35;100716.78;;;23.02;73.66
13934;BME280;7039;52.168;9.866;2022-08-01T11:53:04;100719.72;;;23.34;72.35
13934;BME280;7039;52.168;9.866;2022-08-01T11:55:31;100713.19;;;23.73;71.78
13934;BME280;7039;52.168;9.866;2022-08-01T11:58:01;100710.94;;;23.78;69.70
13934;BME280;7039;52.168;9.866;2022-08-01T12:00:29;100716.53;;;22.95;71.40
13934;BME280;7039;52.168;9.866;2022-08-01T12:03:03;100712.03;;;22.96;73.84
13934;BME280;7039;52.168;9.866;2022-08-01T12:05:31;100719.28;;;22.30;73.74
13934;BME280;7039;52.168;9.866;2022-08-01T12:08:00;100714.16;;;21.72;74.66
13934;BME280;7039;52.168;9.866;2022-08-01T12:10:29;100718.03;;;21.77;76.16
13934;BME280;7039;52.168;9.866;2022-08-01T12:13:02;100726.63;;;22.08;76.39
13934;BME280;7039;52.168;9.866;2022-08-01T12:15:32;100727.84;;;22.14;74.22
13934;BME280;7039;52.168;9.866;2022-08-01T12:18:01;100722.19;;;21.99;72.37
13934;BME280;7039;52.168;9.866;2022-08-01T12:20:31;100732.06;;;22.17;73.32
13934;BME280;7039;52.168;9.866;2022-08-01T12:22:59;100731.34;;;22.24;71.84
13934;BME280;7039;52.168;9.866;2022-08-01T12:25:26;100728.44;;;22.45;71.13
13934;BME280;7039;52.168;9.866;2022-08-01T12:27:52;100734.63;;;22.91;70.06
13934;BME280;7039;52.168;9.866;2022-08-01T12:30:20;100727.38;;;22.84;68.21
13934;BME280;7039;52.168;9.866;2022-08-01T12:32:49;100717.84;;;23.45;67.70
13934;BME280;7039;52.168;9.866;2022-08-01T12:35:18;100727.78;;;24.13;65.56
13934;BME280;7039;52.168;9.866;2022-08-01T12:37:46;100725.16;;;24.21;65.85
13934;BME280;7039;52.168;9.866;2022-08-01T12:40:15;100719.75;;;24.05;67.60
13934;BME280;7039;52.168;9.866;2022-08-01T12:42:43;100722.78;;;24.10;67.37
13934;BME280;7039;52.168;9.866;2022-08-01T12:45:12;100724.72;;;24.00;67.31
13934;BME280;7039;52.168;9.866;2022-08-01T12:47:40;100730.28;;;23.80;66.86
13934;BME280;7039;52.168;9.866;2022-08-01T12:50:10;100722.09;;;23.38;65.16
13934;BME280;7039;52.168;9.866;2022-08-01T12:52:39;100722.94;;;23.20;66.61
13934;BME280;7039;52.168;9.866;2022-08-01T12:55:08;100723.84;;;23.73;66.26
13934;BME280;7039;52.168;9.866;2022-08-01T12:57:37;100713.38;;;24.32;65.28
13934;BME280;7039;52.168;9.866;2022-08-01T13:00:10;100715.59;;;24.45;63.33